createdAt,value
2023-01-02T00:07:28.837Z,89.13
2023-01-02T00:17:35.667Z,89.25
2023-01-02T00:27:39.977Z,89.32
2023-01-02T00:37:42.475Z,88.62
2023-01-02T00:47:45.588Z,87.78
2023-01-02T00:57:50.325Z,88.20
2023-01-02T01:07:56.342Z,88.07
2023-01-02T01:17:58.788Z,88.44
2023-01-02T01:28:03.504Z,88.25
2023-01-02T01:38:08.197Z,87.59
2023-01-02T01:48:14.404Z,87.82
2023-01-02T01:58:25.267Z,87.74
2023-01-02T02:08:48.356Z,87.59
2023-01-02T02:19:29.547Z,87.59
2023-01-02T02:29:43.745Z,87.83
2023-01-02T02:40:07.170Z,87.47
2023-01-02T02:50:13.377Z,87.61
2023-01-02T03:00:20.091Z,87.89
2023-01-02T03:10:47.493Z,87.78
2023-01-02T03:21:17.270Z,87.63
2023-01-02T03:31:23.503Z,87.63
2023-01-02T03:41:28.973Z,87.59
2023-01-02T03:51:30.996Z,87.78
2023-01-02T04:01:54.798Z,88.01
2023-01-02T04:12:05.339Z,88.07
2023-01-02T04:22:15.094Z,88.07
2023-01-02T04:32:18.840Z,88.54
2023-01-02T04:42:20.863Z,89.41
2023-01-02T04:52:23.058Z,89.71
2023-01-02T05:02:31.031Z,89.95
2023-01-02T05:12:39.984Z,92.48
2023-01-02T05:23:03.004Z,93.90
2023-01-02T05:33:05.144Z,95.57
2023-01-02T05:43:07.117Z,96.93
2023-01-02T05:53:11.852Z,98.43
2023-01-02T06:03:16.265Z,99.82
2023-01-02T06:13:20.377Z,99.81
2023-01-02T06:23:24.710Z,100.00
2023-01-02T06:33:27.065Z,100.00
2023-01-02T06:43:30.043Z,100.00
2023-01-02T06:53:36.876Z,100.00
2023-01-02T07:03:41.486Z,100.00
2023-01-02T07:13:44.687Z,100.00
2023-01-02T07:23:49.374Z,100.00
2023-01-02T07:33:51.417Z,100.00
2023-01-02T07:43:55.541Z,100.00
2023-01-02T07:53:57.695Z,100.00
2023-01-02T08:04:00.145Z,100.00
2023-01-02T08:14:05.557Z,100.00
2023-01-02T08:24:12.728Z,100.00
2023-01-02T08:34:20.195Z,100.00
2023-01-02T08:44:25.391Z,100.00
2023-01-02T08:54:27.522Z,100.00
2023-01-02T09:04:32.071Z,100.00
2023-01-02T09:14:41.439Z,100.00
2023-01-02T09:24:43.531Z,99.72
2023-01-02T09:34:51.031Z,97.51
2023-01-02T09:44:55.739Z,96.31
2023-01-02T09:55:00.577Z,94.76
2023-01-02T10:05:26.640Z,93.29
2023-01-02T10:15:29.816Z,91.30
2023-01-02T10:26:11.842Z,90.40
2023-01-02T10:36:29.248Z,88.82
2023-01-02T10:46:38.317Z,88.38
2023-01-02T10:56:40.884Z,87.60
2023-01-02T11:06:53.943Z,86.79
2023-01-02T11:17:07.490Z,85.45
2023-01-02T11:27:09.728Z,84.33
2023-01-02T11:37:16.791Z,82.95
2023-01-02T11:47:24.980Z,82.13
2023-01-02T11:57:45.589Z,81.83
2023-01-02T12:07:54.519Z,81.00
2023-01-02T12:18:05.796Z,80.71
2023-01-02T12:28:58.309Z,81.06
2023-01-02T12:39:24.413Z,80.32
2023-01-02T12:49:55.070Z,80.11
2023-01-02T13:00:05.719Z,80.21
2023-01-02T13:10:16.260Z,79.99
2023-01-02T13:20:31.097Z,79.21
2023-01-02T13:30:48.646Z,78.17
2023-01-02T13:40:56.554Z,77.39
2023-01-02T13:51:00.727Z,77.09
2023-01-02T14:01:27.079Z,76.92
2023-01-02T14:11:55.725Z,76.87
2023-01-02T14:22:02.521Z,77.51
2023-01-02T14:32:09.103Z,77.49
2023-01-02T14:42:57.653Z,78.37
2023-01-02T14:53:03.405Z,78.96
2023-01-02T15:03:32.659Z,80.06
2023-01-02T15:14:04.768Z,80.44
2023-01-02T15:24:00.503Z,80.74
2023-01-02T15:34:07.243Z,81.23
2023-01-02T15:44:29.884Z,81.88
2023-01-02T15:54:38.201Z,82.41
2023-01-02T16:04:40.226Z,82.56
2023-01-02T16:14:45.937Z,83.17
2023-01-02T16:24:52.713Z,83.75
2023-01-02T16:35:04.129Z,84.19
2023-01-02T16:45:07.020Z,85.32
2023-01-02T16:55:16.778Z,86.35
2023-01-02T17:05:20.879Z,87.27
2023-01-02T17:15:25.522Z,87.95
2023-01-02T17:25:30.441Z,88.91
2023-01-02T17:35:34.751Z,89.76
2023-01-02T17:45:41.852Z,91.29
2023-01-02T17:55:51.635Z,92.90
2023-01-02T18:06:14.154Z,94.21
2023-01-02T18:16:24.644Z,95.57
2023-01-02T18:26:30.781Z,96.84
2023-01-02T18:36:44.254Z,97.74
2023-01-02T18:47:04.307Z,98.70
2023-01-02T18:57:20.342Z,99.33
2023-01-02T19:07:37.900Z,100.00
2023-01-02T19:17:41.150Z,100.00
2023-01-02T19:27:48.133Z,100.00
2023-01-02T19:37:52.699Z,100.00
2023-01-02T19:47:58.313Z,100.00
2023-01-02T19:58:06.253Z,99.99
2023-01-02T20:08:08.402Z,98.59
2023-01-02T20:18:12.884Z,96.19
2023-01-02T20:28:18.249Z,95.46
2023-01-02T20:38:23.295Z,94.29
2023-01-02T20:48:30.216Z,93.73
2023-01-02T20:58:34.889Z,93.04
2023-01-02T21:08:39.365Z,92.99
2023-01-02T21:18:46.805Z,93.69
2023-01-02T21:28:51.140Z,93.77
2023-01-02T21:38:55.863Z,94.44
2023-01-02T21:49:02.701Z,93.05
2023-01-02T21:59:08.515Z,92.29
2023-01-02T22:09:13.105Z,92.02
2023-01-02T22:19:15.721Z,91.68
2023-01-02T22:29:29.212Z,90.91
2023-01-02T22:39:43.117Z,91.39
2023-01-02T22:49:45.876Z,91.83
2023-01-02T22:59:48.044Z,92.15
2023-01-02T23:09:52.470Z,92.33
2023-01-02T23:19:57.413Z,93.04
2023-01-02T23:29:59.528Z,93.14
2023-01-02T23:40:01.796Z,93.25
2023-01-02T23:50:04.717Z,92.83
